sensor_id;sensor_type;location;lat;lon;timestamp;temperature;humidity
70151;DHT22;57517;43.562;19.540;2024-02-14T00:00:07;230.80;2252.80
70151;DHT22;57517;43.562;19.540;2024-02-14T00:02:39;230.80;2252.80
70151;DHT22;57517;43.562;19.540;2024-02-14T00:05:07;230.90;2252.80
70151;DHT22;57517;43.562;19.540;2024-02-14T00:07:32;230.90;2252.80
70151;DHT22;57517;43.562;19.540;2024-02-14T00:09:58;230.90;2252.80
70151;DHT22;57517;43.562;19.540;2024-02-14T00:12:24;230.80;2252.80
70151;DHT22;57517;43.562;19.540;2024-02-14T00:14:50;230.70;2252.80
70151;DHT22;57517;43.562;19.540;2024-02-14T00:17:16;230.70;2252.80
70151;DHT22;57517;43.562;19.540;2024-02-14T00:19:42;230.70;2252.80
70151;DHT22;57517;43.562;19.540;2024-02-14T00:22:08;230.60;2252.80
70151;DHT22;57517;43.562;19.540;2024-02-14T00:24:33;230.50;2252.80
70151;DHT22;57517;43.562;19.540;2024-02-14T00:27:02;230.50;2252.80
70151;DHT22;57517;43.562;19.540;2024-02-14T00:29:28;230.50;2252.80
70151;DHT22;57517;43.562;19.540;2024-02-14T00:31:54;230.40;2252.80
70151;DHT22;57517;43.562;19.540;2024-02-14T00:34:20;230.50;2252.80
70151;DHT22;57517;43.562;19.540;2024-02-14T00:36:46;230.50;2252.80
70151;DHT22;57517;43.562;19.540;2024-02-14T00:39:12;230.50;2252.80
70151;DHT22;57517;43.562;19.540;2024-02-14T00:41:38;230.40;2252.80
70151;DHT22;57517;43.562;19.540;2024-02-14T00:44:04;205.70;2252.80
70151;DHT22;57517;43.562;19.540;2024-02-14T00:46:30;205.60;2252.80
70151;DHT22;57517;43.562;19.540;2024-02-14T00:48:56;205.60;2252.80
70151;DHT22;57517;43.562;19.540;2024-02-14T00:51:22;205.70;2252.80
70151;DHT22;57517;43.562;19.540;2024-02-14T00:53:47;205.70;2252.80
70151;DHT22;57517;43.562;19.540;2024-02-14T00:56:13;205.60;2252.80
70151;DHT22;57517;43.562;19.540;2024-02-14T00:58:39;205.60;2252.80
70151;DHT22;57517;43.562;19.540;2024-02-14T01:01:05;205.40;2252.80
70151;DHT22;57517;43.562;19.540;2024-02-14T01:03:31;205.50;2252.80
70151;DHT22;57517;43.562;19.540;2024-02-14T01:05:57;205.50;2252.80
70151;DHT22;57517;43.562;19.540;2024-02-14T01:08:24;205.40;2252.80
70151;DHT22;57517;43.562;19.540;2024-02-14T01:10:49;205.40;2252.80
70151;DHT22;57517;43.562;19.540;2024-02-14T01:13:18;205.50;2252.80
70151;DHT22;57517;43.562;19.540;2024-02-14T01:15:43;205.60;2252.80
70151;DHT22;57517;43.562;19.540;2024-02-14T01:18:09;205.60;2252.80
70151;DHT22;57517;43.562;19.540;2024-02-14T01:20:35;205.50;2252.80
70151;DHT22;57517;43.562;19.540;2024-02-14T01:23:03;205.40;2252.80
70151;DHT22;57517;43.562;19.540;2024-02-14T01:25:29;205.50;2252.80
70151;DHT22;57517;43.562;19.540;2024-02-14T01:27:55;205.50;2252.80
70151;DHT22;57517;43.562;19.540;2024-02-14T01:30:21;205.50;2252.80
70151;DHT22;57517;43.562;19.540;2024-02-14T01:32:47;205.40;2252.80
70151;DHT22;57517;43.562;19.540;2024-02-14T01:35:13;205.20;2252.80
70151;DHT22;57517;43.562;19.540;2024-02-14T01:37:39;205.20;2252.80
70151;DHT22;57517;43.562;19.540;2024-02-14T01:40:06;205.20;2252.80
70151;DHT22;57517;43.562;19.540;2024-02-14T01:42:33;205.20;2252.80
70151;DHT22;57517;43.562;19.540;2024-02-14T01:44:59;205.20;2252.80
70151;DHT22;57517;43.562;19.540;2024-02-14T01:47:25;205.10;2252.80
70151;DHT22;57517;43.562;19.540;2024-02-14T01:49:50;205.20;2252.80
70151;DHT22;57517;43.562;19.540;2024-02-14T01:52:16;205.20;2252.80
70151;DHT22;57517;43.562;19.540;2024-02-14T01:54:43;205.30;2252.80
70151;DHT22;57517;43.562;19.540;2024-02-14T01:57:09;205.30;2252.80
70151;DHT22;57517;43.562;19.540;2024-02-14T01:59:37;205.30;2252.80
70151;DHT22;57517;43.562;19.540;2024-02-14T02:02:03;205.20;2252.80
70151;DHT22;57517;43.562;19.540;2024-02-14T02:04:33;205.30;2252.80
70151;DHT22;57517;43.562;19.540;2024-02-14T02:06:59;205.30;2252.80
70151;DHT22;57517;43.562;19.540;2024-02-14T02:09:25;205.30;2252.80
70151;DHT22;57517;43.562;19.540;2024-02-14T02:11:52;205.30;2252.80
70151;DHT22;57517;43.562;19.540;2024-02-14T02:14:21;205.40;2252.80
70151;DHT22;57517;43.562;19.540;2024-02-14T02:16:48;205.40;2252.80
70151;DHT22;57517;43.562;19.540;2024-02-14T02:19:15;205.40;2252.80
70151;DHT22;57517;43.562;19.540;2024-02-14T02:21:44;205.40;2252.80
70151;DHT22;57517;43.562;19.540;2024-02-14T02:24:11;205.40;2252.80
70151;DHT22;57517;43.562;19.540;2024-02-14T02:26:37;205.40;2252.80
70151;DHT22;57517;43.562;19.540;2024-02-14T02:29:03;205.40;2252.80
70151;DHT22;57517;43.562;19.540;2024-02-14T02:31:30;205.40;2252.80
70151;DHT22;57517;43.562;19.540;2024-02-14T02:33:56;205.40;2252.80
70151;DHT22;57517;43.562;19.540;2024-02-14T02:36:23;205.40;2252.80
70151;DHT22;57517;43.562;19.540;2024-02-14T02:38:50;205.40;2252.80
70151;DHT22;57517;43.562;19.540;2024-02-14T02:41:16;205.40;2252.80
70151;DHT22;57517;43.562;19.540;2024-02-14T02:43:42;205.20;2252.80
70151;DHT22;57517;43.562;19.540;2024-02-14T02:46:11;205.30;2252.80
70151;DHT22;57517;43.562;19.540;2024-02-14T02:48:37;205.40;2252.80
70151;DHT22;57517;43.562;19.540;2024-02-14T02:51:03;205.40;2252.80
70151;DHT22;57517;43.562;19.540;2024-02-14T02:53:29;205.50;2252.80
70151;DHT22;57517;43.562;19.540;2024-02-14T02:55:55;205.50;2252.80
70151;DHT22;57517;43.562;19.540;2024-02-14T02:58:22;205.50;2252.80
70151;DHT22;57517;43.562;19.540;2024-02-14T03:00:48;205.40;2252.80
70151;DHT22;57517;43.562;19.540;2024-02-14T03:03:19;205.40;2252.80
70151;DHT22;57517;43.562;19.540;2024-02-14T03:05:44;205.30;2252.80
70151;DHT22;57517;43.562;19.540;2024-02-14T03:08:11;205.30;2252.80
70151;DHT22;57517;43.562;19.540;2024-02-14T03:10:41;205.20;2252.80
70151;DHT22;57517;43.562;19.540;2024-02-14T03:13:07;205.30;2252.80
70151;DHT22;57517;43.562;19.540;2024-02-14T03:15:37;205.40;2252.80
70151;DHT22;57517;43.562;19.540;2024-02-14T03:18:03;205.30;2252.80
70151;DHT22;57517;43.562;19.540;2024-02-14T03:20:35;205.30;2252.80
70151;DHT22;57517;43.562;19.540;2024-02-14T03:23:02;205.30;2252.80
70151;DHT22;57517;43.562;19.540;2024-02-14T03:25:29;205.30;2252.80
70151;DHT22;57517;43.562;19.540;2024-02-14T03:27:55;205.30;2252.80
70151;DHT22;57517;43.562;19.540;2024-02-14T03:30:22;205.30;2252.80
70151;DHT22;57517;43.562;19.540;2024-02-14T03:32:51;205.30;2252.80
70151;DHT22;57517;43.562;19.540;2024-02-14T03:35:18;205.30;2252.80
70151;DHT22;57517;43.562;19.540;2024-02-14T03:37:46;205.30;2252.80
70151;DHT22;57517;43.562;19.540;2024-02-14T03:40:15;205.30;2252.80
70151;DHT22;57517;43.562;19.540;2024-02-14T03:42:40;205.20;2252.80
70151;DHT22;57517;43.562;19.540;2024-02-14T03:45:07;205.40;2252.80
70151;DHT22;57517;43.562;19.540;2024-02-14T03:47:33;205.40;2252.80
70151;DHT22;57517;43.562;19.540;2024-02-14T03:49:59;205.30;2252.80
70151;DHT22;57517;43.562;19.540;2024-02-14T03:52:25;205.20;2252.80
70151;DHT22;57517;43.562;19.540;2024-02-14T03:54:52;205.30;2252.80
70151;DHT22;57517;43.562;19.540;2024-02-14T03:57:18;205.30;2252.80
70151;DHT22;57517;43.562;19.540;2024-02-14T03:59:47;205.40;2252.80
70151;DHT22;57517;43.562;19.540;2024-02-14T04:02:12;205.40;2252.80
70151;DHT22;57517;43.562;19.540;2024-02-14T04:04:41;205.40;2252.80
70151;DHT22;57517;43.562;19.540;2024-02-14T04:07:07;205.00;2252.80
70151;DHT22;57517;43.562;19.540;2024-02-14T04:09:36;205.00;2252.80
70151;DHT22;57517;43.562;19.540;2024-02-14T04:12:02;180.10;2252.80
70151;DHT22;57517;43.562;19.540;2024-02-14T04:14:28;179.90;2252.80
70151;DHT22;57517;43.562;19.540;2024-02-14T04:16:54;180.10;2252.80
70151;DHT22;57517;43.562;19.540;2024-02-14T04:19:20;204.80;2252.80
70151;DHT22;57517;43.562;19.540;2024-02-14T04:21:46;204.90;2252.80
70151;DHT22;57517;43.562;19.540;2024-02-14T04:24:12;205.00;2252.80
70151;DHT22;57517;43.562;19.540;2024-02-14T04:26:38;205.10;2252.80
70151;DHT22;57517;43.562;19.540;2024-02-14T04:29:04;205.10;2252.80
70151;DHT22;57517;43.562;19.540;2024-02-14T04:31:30;205.10;2252.80
70151;DHT22;57517;43.562;19.540;2024-02-14T04:33:57;205.20;2252.80
70151;DHT22;57517;43.562;19.540;2024-02-14T04:36:23;204.90;2252.80
70151;DHT22;57517;43.562;19.540;2024-02-14T04:38:50;204.90;2252.80
70151;DHT22;57517;43.562;19.540;2024-02-14T04:41:16;204.90;2252.80
70151;DHT22;57517;43.562;19.540;2024-02-14T04:43:42;205.00;2252.80
70151;DHT22;57517;43.562;19.540;2024-02-14T04:46:08;205.00;2252.80
70151;DHT22;57517;43.562;19.540;2024-02-14T04:48:37;205.20;2252.80
70151;DHT22;57517;43.562;19.540;2024-02-14T04:51:04;205.20;2252.80
70151;DHT22;57517;43.562;19.540;2024-02-14T04:53:32;205.30;2252.80
70151;DHT22;57517;43.562;19.540;2024-02-14T04:55:58;205.30;2252.80
70151;DHT22;57517;43.562;19.540;2024-02-14T04:58:24;205.20;2252.80
70151;DHT22;57517;43.562;19.540;2024-02-14T05:00:52;205.20;2252.80
70151;DHT22;57517;43.562;19.540;2024-02-14T05:03:20;205.00;2252.80
70151;DHT22;57517;43.562;19.540;2024-02-14T05:05:46;205.20;2252.80
70151;DHT22;57517;43.562;19.540;2024-02-14T05:08:12;205.20;2252.80
70151;DHT22;57517;43.562;19.540;2024-02-14T05:10:38;205.20;2252.80
70151;DHT22;57517;43.562;19.540;2024-02-14T05:13:04;205.00;2252.80
70151;DHT22;57517;43.562;19.540;2024-02-14T05:15:30;204.90;2252.80
70151;DHT22;57517;43.562;19.540;2024-02-14T05:17:56;205.00;2252.80
70151;DHT22;57517;43.562;19.540;2024-02-14T05:20:22;205.00;2252.80
70151;DHT22;57517;43.562;19.540;2024-02-14T05:22:47;205.20;2252.80
70151;DHT22;57517;43.562;19.540;2024-02-14T05:25:13;205.20;2252.80
70151;DHT22;57517;43.562;19.540;2024-02-14T05:27:39;205.20;2252.80
70151;DHT22;57517;43.562;19.540;2024-02-14T05:30:05;205.20;2252.80
70151;DHT22;57517;43.562;19.540;2024-02-14T05:32:34;205.30;2252.80
70151;DHT22;57517;43.562;19.540;2024-02-14T05:35:01;204.90;2252.80
70151;DHT22;57517;43.562;19.540;2024-02-14T05:37:27;204.80;2252.80
70151;DHT22;57517;43.562;19.540;2024-02-14T05:39:56;204.80;2252.80
70151;DHT22;57517;43.562;19.540;2024-02-14T05:42:21;204.80;2252.80
70151;DHT22;57517;43.562;19.540;2024-02-14T05:44:48;204.90;2252.80
70151;DHT22;57517;43.562;19.540;2024-02-14T05:47:14;180.10;2252.80
70151;DHT22;57517;43.562;19.540;2024-02-14T05:49:40;179.90;2252.80
70151;DHT22;57517;43.562;19.540;2024-02-14T05:52:07;179.60;2252.80
70151;DHT22;57517;43.562;19.540;2024-02-14T05:54:34;179.40;2252.80
70151;DHT22;57517;43.562;19.540;2024-02-14T05:57:00;179.50;2252.80
70151;DHT22;57517;43.562;19.540;2024-02-14T05:59:30;179.70;2252.80
70151;DHT22;57517;43.562;19.540;2024-02-14T06:01:56;179.90;2252.80
70151;DHT22;57517;43.562;19.540;2024-02-14T06:04:22;204.80;2252.80
70151;DHT22;57517;43.562;19.540;2024-02-14T06:06:48;180.10;2252.80
70151;DHT22;57517;43.562;19.540;2024-02-14T06:09:13;204.90;2252.80
70151;DHT22;57517;43.562;19.540;2024-02-14T06:11:39;205.10;2252.80
70151;DHT22;57517;43.562;19.540;2024-02-14T06:14:06;205.20;2252.80
70151;DHT22;57517;43.562;19.540;2024-02-14T06:16:33;205.30;2252.80
70151;DHT22;57517;43.562;19.540;2024-02-14T06:18:59;205.30;2252.80
70151;DHT22;57517;43.562;19.540;2024-02-14T06:21:25;205.40;2252.80
70151;DHT22;57517;43.562;19.540;2024-02-14T06:23:52;205.50;2252.80
70151;DHT22;57517;43.562;19.540;2024-02-14T06:26:18;205.50;2252.80
70151;DHT22;57517;43.562;19.540;2024-02-14T06:28:46;205.50;2252.80
70151;DHT22;57517;43.562;19.540;2024-02-14T06:31:12;205.50;2252.80
70151;DHT22;57517;43.562;19.540;2024-02-14T06:33:38;205.70;2252.80
70151;DHT22;57517;43.562;19.540;2024-02-14T06:36:04;205.70;2252.80
70151;DHT22;57517;43.562;19.540;2024-02-14T06:38:31;205.70;2252.80
70151;DHT22;57517;43.562;19.540;2024-02-14T06:40:57;230.50;2252.80
70151;DHT22;57517;43.562;19.540;2024-02-14T06:43:23;230.50;2252.80
70151;DHT22;57517;43.562;19.540;2024-02-14T06:45:48;230.50;2252.80
70151;DHT22;57517;43.562;19.540;2024-02-14T06:48:14;230.60;2252.80
70151;DHT22;57517;43.562;19.540;2024-02-14T06:50:40;230.70;2252.80
70151;DHT22;57517;43.562;19.540;2024-02-14T06:53:06;231.00;2252.80
70151;DHT22;57517;43.562;19.540;2024-02-14T06:55:32;231.10;2252.80
70151;DHT22;57517;43.562;19.540;2024-02-14T06:58:01;231.30;2252.80
70151;DHT22;57517;43.562;19.540;2024-02-14T07:00:27;256.10;2252.80
70151;DHT22;57517;43.562;19.540;2024-02-14T07:02:55;256.00;2252.80
70151;DHT22;57517;43.562;19.540;2024-02-14T07:05:21;256.10;2252.80
70151;DHT22;57517;43.562;19.540;2024-02-14T07:07:47;256.20;2227.20
70151;DHT22;57517;43.562;19.540;2024-02-14T07:10:13;256.10;2252.80
70151;DHT22;57517;43.562;19.540;2024-02-14T07:12:39;256.50;2201.60
70151;DHT22;57517;43.562;19.540;2024-02-14T07:15:05;282.30;2278.40
70151;DHT22;57517;43.562;19.540;2024-02-14T07:17:31;333.70;1945.60
70151;DHT22;57517;43.562;19.540;2024-02-14T07:19:58;358.50;1792.00
70151;DHT22;57517;43.562;19.540;2024-02-14T07:22:24;384.50;1612.80
70151;DHT22;57517;43.562;19.540;2024-02-14T07:24:50;410.50;1408.00
70151;DHT22;57517;43.562;19.540;2024-02-14T07:27:16;436.10;1305.60
70151;DHT22;57517;43.562;19.540;2024-02-14T07:29:42;486.50;1254.40
70151;DHT22;57517;43.562;19.540;2024-02-14T07:32:08;486.90;1152.00
70151;DHT22;57517;43.562;19.540;2024-02-14T07:34:34;487.20;1126.40
70151;DHT22;57517;43.562;19.540;2024-02-14T07:37:00;461.00;1177.60
70151;DHT22;57517;43.562;19.540;2024-02-14T07:39:25;410.20;1254.40
70151;DHT22;57517;43.562;19.540;2024-02-14T07:41:51;410.50;1280.00
70151;DHT22;57517;43.562;19.540;2024-02-14T07:44:17;410.10;1280.00
70151;DHT22;57517;43.562;19.540;2024-02-14T07:46:43;410.10;1305.60
70151;DHT22;57517;43.562;19.540;2024-02-14T07:49:09;384.90;1305.60
70151;DHT22;57517;43.562;19.540;2024-02-14T07:51:36;384.30;1356.80
70151;DHT22;57517;43.562;19.540;2024-02-14T07:54:05;384.00;1408.00
70151;DHT22;57517;43.562;19.540;2024-02-14T07:56:31;461.50;1228.80
70151;DHT22;57517;43.562;19.540;2024-02-14T07:58:57;435.20;1228.80
70151;DHT22;57517;43.562;19.540;2024-02-14T08:01:25;486.90;1100.80
70151;DHT22;57517;43.562;19.540;2024-02-14T08:03:51;461.20;1152.00
70151;DHT22;57517;43.562;19.540;2024-02-14T08:06:17;538.30;1024.00
70151;DHT22;57517;43.562;19.540;2024-02-14T08:08:43;512.90;972.80
70151;DHT22;57517;43.562;19.540;2024-02-14T08:11:11;512.10;1024.00
70151;DHT22;57517;43.562;19.540;2024-02-14T08:13:37;461.30;1100.80
70151;DHT22;57517;43.562;19.540;2024-02-14T08:16:06;435.50;1126.40
70151;DHT22;57517;43.562;19.540;2024-02-14T08:18:32;410.00;1203.20
70151;DHT22;57517;43.562;19.540;2024-02-14T08:20:58;410.10;1152.00
70151;DHT22;57517;43.562;19.540;2024-02-14T08:23:24;409.80;1177.60
70151;DHT22;57517;43.562;19.540;2024-02-14T08:25:49;359.20;1228.80
70151;DHT22;57517;43.562;19.540;2024-02-14T08:28:15;358.60;1280.00
70151;DHT22;57517;43.562;19.540;2024-02-14T08:30:44;358.60;1280.00
70151;DHT22;57517;43.562;19.540;2024-02-14T08:33:10;461.70;1024.00
70151;DHT22;57517;43.562;19.540;2024-02-14T08:35:36;410.00;1100.80
70151;DHT22;57517;43.562;19.540;2024-02-14T08:38:02;435.30;1100.80
70151;DHT22;57517;43.562;19.540;2024-02-14T08:40:28;589.10;870.40
70151;DHT22;57517;43.562;19.540;2024-02-14T08:42:54;691.60;742.40
70151;DHT22;57517;43.562;19.540;2024-02-14T08:45:20;717.50;716.80
70151;DHT22;57517;43.562;19.540;2024-02-14T08:47:46;819.30;640.00
70151;DHT22;57517;43.562;19.540;2024-02-14T08:50:11;768.20;665.60
70151;DHT22;57517;43.562;19.540;2024-02-14T08:52:37;768.90;614.40
70151;DHT22;57517;43.562;19.540;2024-02-14T08:55:04;717.40;691.20
70151;DHT22;57517;43.562;19.540;2024-02-14T08:57:31;640.40;742.40
70151;DHT22;57517;43.562;19.540;2024-02-14T08:59:58;589.10;819.20
70151;DHT22;57517;43.562;19.540;2024-02-14T09:02:24;512.60;870.40
70151;DHT22;57517;43.562;19.540;2024-02-14T09:04:51;615.30;768.00
70151;DHT22;57517;43.562;19.540;2024-02-14T09:07:16;691.90;665.60
70151;DHT22;57517;43.562;19.540;2024-02-14T09:09:42;589.50;742.40
70151;DHT22;57517;43.562;19.540;2024-02-14T09:12:08;563.70;870.40
70151;DHT22;57517;43.562;19.540;2024-02-14T09:14:34;691.90;691.20
70151;DHT22;57517;43.562;19.540;2024-02-14T09:19:27;845.70;563.20
70151;DHT22;57517;43.562;19.540;2024-02-14T09:21:53;819.50;588.80
70151;DHT22;57517;43.562;19.540;2024-02-14T09:24:19;717.00;665.60
70151;DHT22;57517;43.562;19.540;2024-02-14T09:26:44;768.80;588.80
70151;DHT22;57517;43.562;19.540;2024-02-14T09:41:29;870.90;512.00
70151;DHT22;57517;43.562;19.540;2024-02-14T09:43:55;793.60;614.40
70151;DHT22;57517;43.562;19.540;2024-02-14T09:46:24;871.20;563.20
70151;DHT22;57517;43.562;19.540;2024-02-14T09:48:54;845.30;588.80
70151;DHT22;57517;43.562;19.540;2024-02-14T09:51:21;768.70;588.80
70151;DHT22;57517;43.562;19.540;2024-02-14T09:53:47;845.70;563.20
70151;DHT22;57517;43.562;19.540;2024-02-14T09:56:14;845.20;537.60
70151;DHT22;57517;43.562;19.540;2024-02-14T10:01:09;998.80;486.40
70151;DHT22;57517;43.562;19.540;2024-02-14T10:06:02;871.10;486.40
70151;DHT22;57517;43.562;19.540;2024-02-14T10:08:30;870.80;486.40
70151;DHT22;57517;43.562;19.540;2024-02-14T10:10:57;845.70;537.60
70151;DHT22;57517;43.562;19.540;2024-02-14T10:13:27;820.00;537.60
70151;DHT22;57517;43.562;19.540;2024-02-14T10:15:54;768.60;563.20
70151;DHT22;57517;43.562;19.540;2024-02-14T10:18:21;743.30;640.00
70151;DHT22;57517;43.562;19.540;2024-02-14T10:20:56;742.40;640.00
70151;DHT22;57517;43.562;19.540;2024-02-14T10:23:22;870.60;512.00
70151;DHT22;57517;43.562;19.540;2024-02-14T10:25:50;896.30;512.00
70151;DHT22;57517;43.562;19.540;2024-02-14T10:38:08;844.80;486.40
70151;DHT22;57517;43.562;19.540;2024-02-14T10:40:36;768.00;512.00
70151;DHT22;57517;43.562;19.540;2024-02-14T10:43:07;844.80;537.60
70151;DHT22;57517;43.562;19.540;2024-02-14T10:45:35;870.70;512.00
70151;DHT22;57517;43.562;19.540;2024-02-14T10:48:04;870.90;486.40
70151;DHT22;57517;43.562;19.540;2024-02-14T10:53:05;844.90;537.60
70151;DHT22;57517;43.562;19.540;2024-02-14T10:55:33;768.70;563.20
70151;DHT22;57517;43.562;19.540;2024-02-14T10:58:01;717.10;614.40
70151;DHT22;57517;43.562;19.540;2024-02-14T11:00:28;666.30;640.00
70151;DHT22;57517;43.562;19.540;2024-02-14T11:02:55;640.00;665.60
70151;DHT22;57517;43.562;19.540;2024-02-14T11:05:21;589.10;742.40
70151;DHT22;57517;43.562;19.540;2024-02-14T11:07:51;538.30;768.00
70151;DHT22;57517;43.562;19.540;2024-02-14T11:10:21;537.60;819.20
70151;DHT22;57517;43.562;19.540;2024-02-14T11:12:48;512.50;793.60
70151;DHT22;57517;43.562;19.540;2024-02-14T11:15:23;512.00;819.20
70151;DHT22;57517;43.562;19.540;2024-02-14T11:17:50;486.70;819.20
70151;DHT22;57517;43.562;19.540;2024-02-14T11:20:30;486.90;819.20
70151;DHT22;57517;43.562;19.540;2024-02-14T11:23:06;487.10;844.80
70151;DHT22;57517;43.562;19.540;2024-02-14T11:25:37;486.60;844.80
70151;DHT22;57517;43.562;19.540;2024-02-14T11:28:15;486.60;844.80
70151;DHT22;57517;43.562;19.540;2024-02-14T11:30:42;461.60;844.80
70151;DHT22;57517;43.562;19.540;2024-02-14T11:33:22;461.20;870.40
70151;DHT22;57517;43.562;19.540;2024-02-14T11:35:53;461.20;896.00
70151;DHT22;57517;43.562;19.540;2024-02-14T11:38:21;461.20;896.00
70151;DHT22;57517;43.562;19.540;2024-02-14T11:40:47;461.20;896.00
70151;DHT22;57517;43.562;19.540;2024-02-14T11:43:19;461.30;921.60
70151;DHT22;57517;43.562;19.540;2024-02-14T11:45:47;460.90;921.60
70151;DHT22;57517;43.562;19.540;2024-02-14T11:48:18;436.00;896.00
70151;DHT22;57517;43.562;19.540;2024-02-14T11:50:46;435.60;896.00
70151;DHT22;57517;43.562;19.540;2024-02-14T11:53:13;435.70;947.20
70151;DHT22;57517;43.562;19.540;2024-02-14T11:55:42;435.60;921.60
70151;DHT22;57517;43.562;19.540;2024-02-14T11:58:11;435.50;947.20
70151;DHT22;57517;43.562;19.540;2024-02-14T12:00:42;435.80;921.60
70151;DHT22;57517;43.562;19.540;2024-02-14T12:03:15;436.00;998.40
70151;DHT22;57517;43.562;19.540;2024-02-14T12:05:41;435.70;921.60
70151;DHT22;57517;43.562;19.540;2024-02-14T12:08:09;435.80;921.60
70151;DHT22;57517;43.562;19.540;2024-02-14T12:10:36;435.80;972.80
70151;DHT22;57517;43.562;19.540;2024-02-14T12:15:52;435.90;947.20
70151;DHT22;57517;43.562;19.540;2024-02-14T12:18:19;435.80;921.60
70151;DHT22;57517;43.562;19.540;2024-02-14T12:20:45;435.70;947.20
70151;DHT22;57517;43.562;19.540;2024-02-14T12:23:18;435.30;921.60
70151;DHT22;57517;43.562;19.540;2024-02-14T12:25:45;410.30;972.80
70151;DHT22;57517;43.562;19.540;2024-02-14T12:28:16;409.90;998.40
70151;DHT22;57517;43.562;19.540;2024-02-14T12:30:47;409.70;1024.00
70151;DHT22;57517;43.562;19.540;2024-02-14T12:33:21;409.60;1024.00
70151;DHT22;57517;43.562;19.540;2024-02-14T12:35:51;409.80;972.80
70151;DHT22;57517;43.562;19.540;2024-02-14T12:38:18;384.90;947.20
70151;DHT22;57517;43.562;19.540;2024-02-14T12:40:45;409.70;998.40
70151;DHT22;57517;43.562;19.540;2024-02-14T12:43:13;409.70;1049.60
70151;DHT22;57517;43.562;19.540;2024-02-14T12:45:39;409.70;972.80
70151;DHT22;57517;43.562;19.540;2024-02-14T12:48:09;384.90;998.40
70151;DHT22;57517;43.562;19.540;2024-02-14T12:50:36;384.90;972.80
70151;DHT22;57517;43.562;19.540;2024-02-14T12:53:06;384.80;972.80
70151;DHT22;57517;43.562;19.540;2024-02-14T12:55:32;384.70;947.20
70151;DHT22;57517;43.562;19.540;2024-02-14T12:57:58;384.80;972.80
70151;DHT22;57517;43.562;19.540;2024-02-14T13:00:25;384.70;972.80
70151;DHT22;57517;43.562;19.540;2024-02-14T13:02:52;384.60;972.80
70151;DHT22;57517;43.562;19.540;2024-02-14T13:05:19;384.70;972.80
70151;DHT22;57517;43.562;19.540;2024-02-14T13:08:08;384.60;998.40
70151;DHT22;57517;43.562;19.540;2024-02-14T13:10:37;384.40;998.40
70151;DHT22;57517;43.562;19.540;2024-02-14T13:13:02;359.30;972.80
70151;DHT22;57517;43.562;19.540;2024-02-14T13:15:28;359.20;998.40
70151;DHT22;57517;43.562;19.540;2024-02-14T13:17:54;358.90;972.80
70151;DHT22;57517;43.562;19.540;2024-02-14T13:20:21;359.00;998.40
70151;DHT22;57517;43.562;19.540;2024-02-14T13:22:47;359.20;998.40
70151;DHT22;57517;43.562;19.540;2024-02-14T13:25:13;359.20;998.40
70151;DHT22;57517;43.562;19.540;2024-02-14T13:27:40;359.00;998.40
70151;DHT22;57517;43.562;19.540;2024-02-14T13:30:06;359.00;998.40
70151;DHT22;57517;43.562;19.540;2024-02-14T13:32:35;358.80;998.40
70151;DHT22;57517;43.562;19.540;2024-02-14T13:35:01;358.90;998.40
70151;DHT22;57517;43.562;19.540;2024-02-14T13:37:27;358.90;998.40
70151;DHT22;57517;43.562;19.540;2024-02-14T13:39:53;359.20;998.40
70151;DHT22;57517;43.562;19.540;2024-02-14T13:42:19;358.80;972.80
70151;DHT22;57517;43.562;19.540;2024-02-14T13:44:44;358.80;972.80
70151;DHT22;57517;43.562;19.540;2024-02-14T13:47:10;358.80;1024.00
70151;DHT22;57517;43.562;19.540;2024-02-14T13:49:36;358.60;1024.00
70151;DHT22;57517;43.562;19.540;2024-02-14T13:52:02;358.50;1024.00
70151;DHT22;57517;43.562;19.540;2024-02-14T13:54:28;358.50;998.40
70151;DHT22;57517;43.562;19.540;2024-02-14T13:56:53;358.60;998.40
70151;DHT22;57517;43.562;19.540;2024-02-14T13:59:20;358.60;998.40
70151;DHT22;57517;43.562;19.540;2024-02-14T14:01:46;358.40;972.80
70151;DHT22;57517;43.562;19.540;2024-02-14T14:04:15;358.50;998.40
70151;DHT22;57517;43.562;19.540;2024-02-14T14:06:41;358.40;998.40
70151;DHT22;57517;43.562;19.540;2024-02-14T14:09:06;358.50;998.40
70151;DHT22;57517;43.562;19.540;2024-02-14T14:11:36;333.70;998.40
70151;DHT22;57517;43.562;19.540;2024-02-14T14:14:03;333.60;998.40
70151;DHT22;57517;43.562;19.540;2024-02-14T14:16:29;333.60;998.40
70151;DHT22;57517;43.562;19.540;2024-02-14T14:18:54;333.50;998.40
70151;DHT22;57517;43.562;19.540;2024-02-14T14:21:20;333.50;998.40
70151;DHT22;57517;43.562;19.540;2024-02-14T14:23:46;333.60;998.40
70151;DHT22;57517;43.562;19.540;2024-02-14T14:26:12;333.70;1024.00
70151;DHT22;57517;43.562;19.540;2024-02-14T14:28:39;333.70;1024.00
70151;DHT22;57517;43.562;19.540;2024-02-14T14:31:05;333.60;1024.00
70151;DHT22;57517;43.562;19.540;2024-02-14T14:33:30;333.60;1049.60
70151;DHT22;57517;43.562;19.540;2024-02-14T14:35:56;333.50;1049.60
70151;DHT22;57517;43.562;19.540;2024-02-14T14:38:23;333.40;998.40
70151;DHT22;57517;43.562;19.540;2024-02-14T14:40:49;333.00;998.40
70151;DHT22;57517;43.562;19.540;2024-02-14T14:43:15;333.00;1024.00
70151;DHT22;57517;43.562;19.540;2024-02-14T14:45:44;333.00;1024.00
70151;DHT22;57517;43.562;19.540;2024-02-14T14:48:10;333.10;998.40
70151;DHT22;57517;43.562;19.540;2024-02-14T14:50:36;333.00;1024.00
70151;DHT22;57517;43.562;19.540;2024-02-14T14:53:03;333.00;1024.00
70151;DHT22;57517;43.562;19.540;2024-02-14T14:55:49;332.80;1024.00
70151;DHT22;57517;43.562;19.540;2024-02-14T14:58:15;308.10;1024.00
70151;DHT22;57517;43.562;19.540;2024-02-14T15:00:42;308.00;998.40
70151;DHT22;57517;43.562;19.540;2024-02-14T15:03:08;308.00;998.40
70151;DHT22;57517;43.562;19.540;2024-02-14T15:05:34;308.00;1024.00
70151;DHT22;57517;43.562;19.540;2024-02-14T15:08:00;308.00;1024.00
70151;DHT22;57517;43.562;19.540;2024-02-14T15:10:25;307.90;1024.00
70151;DHT22;57517;43.562;19.540;2024-02-14T15:12:51;307.90;1024.00